createdAt,value
2022-08-27T00:00:57.981Z,0.00
2022-08-27T00:03:28.147Z,2.00
2022-08-27T00:06:04.773Z,1.00
2022-08-27T00:08:38.958Z,0.00
2022-08-27T00:11:09.264Z,0.00
2022-08-27T00:13:40.574Z,0.00
2022-08-27T00:16:13.341Z,5.50
2022-08-27T00:18:44.367Z,0.00
2022-08-27T00:21:20.161Z,0.00
2022-08-27T00:26:19.838Z,0.50
2022-08-27T00:28:49.955Z,4.00
2022-08-27T00:31:23.645Z,6.50
2022-08-27T00:33:58.225Z,2.00
2022-08-27T00:36:28.528Z,2.00
2022-08-27T00:38:58.847Z,0.00
2022-08-27T00:41:28.950Z,3.00
2022-08-27T00:44:01.420Z,5.00
2022-08-27T00:47:02.632Z,4.50
2022-08-27T00:49:47.484Z,2.00
2022-08-27T00:52:51.961Z,2.00
2022-08-27T00:55:32.790Z,6.50
2022-08-27T00:58:46.737Z,5.50
2022-08-27T01:01:19.968Z,6.00
2022-08-27T01:03:54.503Z,2.00
2022-08-27T01:06:28.254Z,2.00
2022-08-27T01:09:14.977Z,2.00
2022-08-27T01:11:46.021Z,2.00
2022-08-27T01:14:18.202Z,2.00
2022-08-27T01:16:56.129Z,2.50
2022-08-27T01:19:30.720Z,4.00
2022-08-27T01:22:21.623Z,4.00
2022-08-27T01:24:58.766Z,2.00
2022-08-27T01:27:34.481Z,2.00
2022-08-27T01:30:05.873Z,3.33
2022-08-27T01:32:37.853Z,2.00
2022-08-27T01:35:11.911Z,3.50
2022-08-27T01:37:44.431Z,2.00
2022-08-27T01:40:16.866Z,4.00
2022-08-27T01:42:51.278Z,2.00
2022-08-27T01:45:28.080Z,6.50
2022-08-27T01:47:59.336Z,4.50
2022-08-27T01:50:37.490Z,2.00
2022-08-27T01:53:14.692Z,2.50
2022-08-27T01:55:48.294Z,2.00
2022-08-27T01:58:20.774Z,2.00
2022-08-27T02:00:56.563Z,2.00
2022-08-27T02:03:28.324Z,4.00
2022-08-27T02:05:59.081Z,6.50
2022-08-27T02:08:29.309Z,5.00
2022-08-27T02:10:59.900Z,3.50
2022-08-27T02:13:30.230Z,2.00
2022-08-27T02:16:01.454Z,3.33
2022-08-27T02:18:31.691Z,4.00
2022-08-27T02:21:01.830Z,9.00
2022-08-27T02:23:31.994Z,10.50
2022-08-27T02:26:02.930Z,6.50
2022-08-27T02:28:33.166Z,4.00
2022-08-27T02:31:03.488Z,7.33
2022-08-27T02:33:34.626Z,9.00
2022-08-27T02:36:06.367Z,4.00
2022-08-27T02:38:36.610Z,3.50
2022-08-27T02:41:07.158Z,2.00
2022-08-27T02:43:37.805Z,3.00
2022-08-27T02:46:08.256Z,4.00
2022-08-27T02:48:44.511Z,2.00
2022-08-27T02:51:14.890Z,4.67
2022-08-27T02:53:45.636Z,3.00
2022-08-27T02:56:15.905Z,2.00
2022-08-27T02:58:52.240Z,4.00
2022-08-27T03:01:22.791Z,5.00
2022-08-27T03:03:53.199Z,3.33
2022-08-27T03:06:23.330Z,2.00
2022-08-27T03:08:53.679Z,4.00
2022-08-27T03:11:25.427Z,6.50
2022-08-27T03:13:56.008Z,4.50
2022-08-27T03:16:26.711Z,2.50
2022-08-27T03:18:56.889Z,8.50
2022-08-27T03:21:28.232Z,3.00
2022-08-27T03:23:58.383Z,4.00
2022-08-27T03:26:40.726Z,5.00
2022-08-27T03:29:10.848Z,4.00
2022-08-27T03:34:11.526Z,2.00
2022-08-27T03:36:41.948Z,2.50
2022-08-27T03:39:11.949Z,4.00
2022-08-27T03:41:54.801Z,4.00
2022-08-27T03:44:26.692Z,6.50
2022-08-27T03:46:56.804Z,2.00
2022-08-27T03:49:26.953Z,2.00
2022-08-27T03:51:57.144Z,5.50
2022-08-27T03:54:27.239Z,5.50
2022-08-27T03:56:57.242Z,3.00
2022-08-27T03:59:27.241Z,4.00
2022-08-27T04:04:26.823Z,2.00
2022-08-27T04:06:58.965Z,2.00
2022-08-27T04:09:29.830Z,11.00
2022-08-27T04:12:00.256Z,8.50
2022-08-27T04:16:59.905Z,9.33
2022-08-27T04:19:31.566Z,2.00
2022-08-27T04:24:34.080Z,3.33
2022-08-27T04:27:06.796Z,8.00
2022-08-27T04:29:37.172Z,2.00
2022-08-27T04:32:10.469Z,2.00
2022-08-27T04:34:40.922Z,4.00
2022-08-27T04:37:10.992Z,4.00
2022-08-27T04:39:41.054Z,2.00
2022-08-27T04:42:11.052Z,4.00
2022-08-27T04:44:41.045Z,2.00
2022-08-27T04:47:11.109Z,2.00
2022-08-27T04:49:42.690Z,4.00
2022-08-27T04:52:13.325Z,2.00
2022-08-27T04:54:43.321Z,2.00
2022-08-27T04:57:13.405Z,4.00
2022-08-27T04:59:43.409Z,3.00
2022-08-27T05:02:13.462Z,6.00
2022-08-27T05:04:43.681Z,4.00
2022-08-27T05:09:43.619Z,2.00
2022-08-27T05:12:13.712Z,2.50
2022-08-27T05:14:43.855Z,3.50
2022-08-27T05:17:14.132Z,4.00
2022-08-27T05:19:44.245Z,4.00
2022-08-27T05:22:15.039Z,3.00
2022-08-27T05:24:50.148Z,4.00
2022-08-27T05:27:21.103Z,4.00
2022-08-27T05:29:51.326Z,4.00
2022-08-27T05:32:21.381Z,2.00
2022-08-27T05:34:51.553Z,3.00
2022-08-27T05:37:21.567Z,2.00
2022-08-27T05:39:51.651Z,2.00
2022-08-27T05:42:21.731Z,2.00
2022-08-27T05:44:51.866Z,2.67
2022-08-27T05:47:21.896Z,5.00
2022-08-27T05:49:55.532Z,3.00
2022-08-27T05:52:26.257Z,3.50
2022-08-27T05:57:26.367Z,4.00
2022-08-27T06:00:15.757Z,4.50
2022-08-27T06:02:46.823Z,2.50
2022-08-27T06:05:16.990Z,2.00
2022-08-27T06:07:47.326Z,2.00
2022-08-27T06:10:20.518Z,13.75
2022-08-27T06:12:53.780Z,4.00
2022-08-27T06:15:27.607Z,4.00
2022-08-27T06:17:58.026Z,2.00
2022-08-27T06:20:28.645Z,2.00
2022-08-27T06:22:58.677Z,4.00
2022-08-27T06:25:28.704Z,4.00
2022-08-27T06:28:00.663Z,2.00
2022-08-27T06:30:31.000Z,3.33
2022-08-27T06:33:01.600Z,5.00
2022-08-27T06:35:33.995Z,5.50
2022-08-27T06:38:04.755Z,2.00
2022-08-27T06:40:35.080Z,3.00
2022-08-27T06:43:05.818Z,4.00
2022-08-27T06:45:40.549Z,2.00
2022-08-27T06:48:11.050Z,3.00
2022-08-27T06:53:14.230Z,5.00
2022-08-27T06:55:46.973Z,5.50
2022-08-27T06:58:19.522Z,4.00
2022-08-27T07:00:49.806Z,10.50
2022-08-27T07:03:19.840Z,4.00
2022-08-27T07:05:49.912Z,12.00
2022-08-27T07:10:49.727Z,2.50
2022-08-27T07:13:19.859Z,6.50
2022-08-27T07:15:49.898Z,5.50
2022-08-27T07:18:27.241Z,4.00
2022-08-27T07:23:28.657Z,2.67
2022-08-27T07:25:59.214Z,3.33
2022-08-27T07:28:30.590Z,14.00
2022-08-27T07:31:00.960Z,13.00
2022-08-27T07:33:31.607Z,6.67
2022-08-27T07:36:02.790Z,2.50
2022-08-27T07:38:33.109Z,7.00
2022-08-27T07:41:17.506Z,7.50
2022-08-27T07:44:06.745Z,2.00
2022-08-27T07:46:45.701Z,2.00
2022-08-27T07:49:21.590Z,3.00
2022-08-27T07:51:53.627Z,2.00
2022-08-27T07:54:25.591Z,3.50
2022-08-27T07:56:57.167Z,2.00
2022-08-27T07:59:29.076Z,3.50
2022-08-27T08:01:59.858Z,3.50
2022-08-27T08:04:30.304Z,2.00
2022-08-27T08:07:00.933Z,5.00
2022-08-27T08:09:33.552Z,11.00
2022-08-27T08:12:04.420Z,7.50
2022-08-27T08:14:34.737Z,4.00
2022-08-27T08:17:10.078Z,4.00
2022-08-27T08:19:47.447Z,8.00
2022-08-27T08:22:28.786Z,2.00
2022-08-27T08:25:00.383Z,7.00
2022-08-27T08:27:31.129Z,4.50
2022-08-27T08:30:02.238Z,4.00
2022-08-27T08:32:32.555Z,5.50
2022-08-27T08:35:02.527Z,4.50
2022-08-27T08:40:02.072Z,6.67
2022-08-27T08:42:41.642Z,5.33
2022-08-27T08:45:22.452Z,8.00
2022-08-27T08:48:06.271Z,9.00
2022-08-27T08:50:41.034Z,5.33
2022-08-27T08:53:23.542Z,6.00
2022-08-27T08:56:16.263Z,9.00
2022-08-27T08:59:05.407Z,8.00
2022-08-27T09:01:36.595Z,9.00
2022-08-27T09:06:43.551Z,10.00
2022-08-27T09:09:39.084Z,11.00
2022-08-27T09:12:31.916Z,10.00
2022-08-27T09:15:43.187Z,5.33
2022-08-27T09:18:16.148Z,8.00
2022-08-27T09:20:56.508Z,4.50
2022-08-27T09:23:58.623Z,9.33
2022-08-27T09:26:31.736Z,6.00
2022-08-27T09:29:17.974Z,10.00
2022-08-27T09:31:57.486Z,6.50
2022-08-27T09:37:13.918Z,6.00
2022-08-27T09:39:52.230Z,4.50
2022-08-27T09:42:49.611Z,12.00
2022-08-27T09:45:27.577Z,30.75
2022-08-27T09:48:08.617Z,30.50
2022-08-27T09:50:48.677Z,37.50
2022-08-27T09:53:29.155Z,34.75
2022-08-27T09:56:09.304Z,39.00
2022-08-27T09:58:45.493Z,35.25
2022-08-27T10:01:51.250Z,23.50
2022-08-27T10:04:29.794Z,29.00
2022-08-27T10:07:03.234Z,29.00
2022-08-27T10:09:39.834Z,24.00
2022-08-27T10:12:24.828Z,4.67
2022-08-27T10:15:00.853Z,10.00
2022-08-27T10:17:48.910Z,14.50
2022-08-27T10:21:05.586Z,4.50
2022-08-27T10:23:57.312Z,5.50
2022-08-27T10:26:37.116Z,9.00
2022-08-27T10:32:06.681Z,12.50
2022-08-27T10:34:49.224Z,9.33
2022-08-27T10:38:00.807Z,7.00
2022-08-27T10:40:55.091Z,5.00
2022-08-27T10:44:15.240Z,10.00
2022-08-27T10:46:54.576Z,10.00
2022-08-27T10:49:42.782Z,8.00
2022-08-27T10:52:30.631Z,8.50
2022-08-27T10:55:24.165Z,9.50
2022-08-27T10:58:03.235Z,10.50
2022-08-27T11:01:02.276Z,7.00
2022-08-27T11:03:49.119Z,9.50
2022-08-27T11:06:41.263Z,7.00
2022-08-27T11:09:23.240Z,8.50
2022-08-27T11:12:17.378Z,8.00
2022-08-27T11:15:00.369Z,12.50
2022-08-27T11:17:57.908Z,10.00
2022-08-27T11:20:32.916Z,8.00
2022-08-27T11:23:17.708Z,8.00
2022-08-27T11:26:02.287Z,9.00
2022-08-27T11:28:46.076Z,8.00
2022-08-27T11:31:39.470Z,6.00
2022-08-27T11:34:22.123Z,6.00
2022-08-27T11:37:20.686Z,8.50
2022-08-27T11:40:21.514Z,12.00
2022-08-27T11:42:57.695Z,12.00
2022-08-27T11:45:39.986Z,10.00
2022-08-27T11:48:33.047Z,7.50
2022-08-27T11:51:37.225Z,6.00
2022-08-27T11:54:11.771Z,6.50
2022-08-27T11:56:45.736Z,7.33
2022-08-27T11:59:24.241Z,9.00
2022-08-27T12:01:57.214Z,13.50
2022-08-27T12:04:33.287Z,8.00
2022-08-27T12:16:38.546Z,9.33
2022-08-27T12:19:38.936Z,6.00
2022-08-27T12:23:21.042Z,14.00
2022-08-27T12:26:18.430Z,7.33
2022-08-27T12:29:17.627Z,7.33
2022-08-27T12:34:31.214Z,12.67
2022-08-27T12:37:07.353Z,11.33
2022-08-27T12:39:42.178Z,6.00
2022-08-27T12:42:23.863Z,6.00
2022-08-27T12:44:59.298Z,14.00
2022-08-27T12:47:29.953Z,12.50
2022-08-27T12:50:02.648Z,9.50
2022-08-27T12:52:54.092Z,5.50
2022-08-27T12:55:33.117Z,5.50
2022-08-27T12:58:25.456Z,4.00
2022-08-27T13:01:20.657Z,11.50
2022-08-27T13:03:55.475Z,8.00
2022-08-27T13:09:10.859Z,6.00
2022-08-27T13:11:58.048Z,7.50
2022-08-27T13:14:30.669Z,8.00
2022-08-27T13:17:07.047Z,5.00
2022-08-27T13:19:44.757Z,6.50
2022-08-27T13:22:27.397Z,12.50
2022-08-27T13:25:01.326Z,13.33
2022-08-27T13:27:35.020Z,14.50
2022-08-27T13:30:10.432Z,8.67
2022-08-27T13:32:42.882Z,14.50
2022-08-27T13:35:14.135Z,8.00
2022-08-27T13:37:55.999Z,10.00
2022-08-27T13:40:33.225Z,3.50
2022-08-27T13:43:13.722Z,5.33
2022-08-27T13:45:49.796Z,13.00
2022-08-27T13:48:24.419Z,9.50
2022-08-27T13:50:59.745Z,8.00
2022-08-27T13:53:54.339Z,8.50
2022-08-27T13:56:28.003Z,3.50
2022-08-27T13:59:12.523Z,11.00
2022-08-27T14:01:57.045Z,8.00
2022-08-27T14:04:44.773Z,8.00
2022-08-27T14:07:26.899Z,13.00
2022-08-27T14:10:10.190Z,13.00
2022-08-27T14:12:43.492Z,9.50
2022-08-27T14:15:37.459Z,5.00
2022-08-27T14:18:11.155Z,1.00
2022-08-27T14:20:41.363Z,4.00
2022-08-27T14:23:11.372Z,4.67
2022-08-27T14:28:12.604Z,1.00
2022-08-27T14:30:43.069Z,13.00
2022-08-27T14:33:14.217Z,4.67
2022-08-27T14:35:48.004Z,8.00
2022-08-27T14:38:22.898Z,8.00
2022-08-27T14:40:55.703Z,5.00
2022-08-27T14:45:56.817Z,7.50
2022-08-27T14:48:31.914Z,7.50
2022-08-27T14:51:08.164Z,12.25
2022-08-27T14:53:38.166Z,2.50
2022-08-27T14:56:08.522Z,12.00
2022-08-27T14:58:39.048Z,8.00
2022-08-27T15:01:09.609Z,2.00
2022-08-27T15:03:50.080Z,3.50
2022-08-27T15:06:23.908Z,2.50
2022-08-27T15:09:05.995Z,6.00
2022-08-27T15:11:39.718Z,2.00
2022-08-27T15:16:58.117Z,3.00
2022-08-27T15:19:31.149Z,2.00
2022-08-27T15:22:20.336Z,11.00
2022-08-27T15:24:55.691Z,2.67
2022-08-27T15:27:37.966Z,4.00
2022-08-27T15:30:12.075Z,2.00
2022-08-27T15:32:49.357Z,2.00
2022-08-27T15:35:27.873Z,3.50
2022-08-27T15:37:59.591Z,2.00
2022-08-27T15:40:34.332Z,4.50
2022-08-27T15:43:08.195Z,6.50
2022-08-27T15:45:38.899Z,1.50
2022-08-27T15:48:09.075Z,9.00
2022-08-27T15:50:40.432Z,0.00
2022-08-27T15:53:11.963Z,6.00
2022-08-27T15:55:45.823Z,2.00
2022-08-27T16:00:48.721Z,4.67
2022-08-27T16:03:35.848Z,10.00
2022-08-27T16:06:06.999Z,1.50
2022-08-27T16:08:41.915Z,4.00
2022-08-27T16:11:12.565Z,0.00
2022-08-27T16:13:42.907Z,1.00
2022-08-27T16:16:14.873Z,2.00
2022-08-27T16:18:45.605Z,2.00
2022-08-27T16:21:15.823Z,4.00
2022-08-27T16:26:17.805Z,0.00
2022-08-27T16:28:48.153Z,2.00
2022-08-27T16:31:19.627Z,6.00
2022-08-27T16:33:50.826Z,8.50
2022-08-27T16:36:21.541Z,2.00
2022-08-27T16:38:52.405Z,5.33
2022-08-27T16:41:23.755Z,2.00
2022-08-27T16:43:53.839Z,19.00
2022-08-27T16:46:23.862Z,7.00
2022-08-27T16:49:11.700Z,2.00
2022-08-27T16:51:44.831Z,2.00
2022-08-27T16:54:17.839Z,2.00
2022-08-27T16:56:48.054Z,2.00
2022-08-27T16:59:18.033Z,4.00
2022-08-27T17:01:53.347Z,6.00
2022-08-27T17:04:29.614Z,0.00
2022-08-27T17:07:02.481Z,0.00
2022-08-27T17:09:33.760Z,2.00
2022-08-27T17:12:06.452Z,1.00
2022-08-27T17:14:41.234Z,2.00
2022-08-27T17:17:11.735Z,2.00
2022-08-27T17:19:42.397Z,2.00
2022-08-27T17:22:13.428Z,3.50
2022-08-27T17:24:43.474Z,2.00
2022-08-27T17:29:43.166Z,9.50
2022-08-27T17:32:13.279Z,6.00
2022-08-27T17:34:43.386Z,6.50
2022-08-27T17:37:13.469Z,0.00
2022-08-27T17:39:43.647Z,4.00
2022-08-27T17:42:14.774Z,4.67
2022-08-27T17:44:44.770Z,2.00
2022-08-27T17:47:14.946Z,4.00
2022-08-27T17:49:44.903Z,2.00
2022-08-27T17:52:16.980Z,0.50
2022-08-27T17:54:55.499Z,0.00
2022-08-27T17:57:28.437Z,2.00
2022-08-27T18:00:04.177Z,3.00
2022-08-27T18:02:49.013Z,3.50
2022-08-27T18:05:22.674Z,2.00
2022-08-27T18:07:54.440Z,2.50
2022-08-27T18:10:28.346Z,2.00
2022-08-27T18:12:59.030Z,6.50
2022-08-27T18:15:35.636Z,2.00
2022-08-27T18:18:06.533Z,1.50
2022-08-27T18:20:38.180Z,2.00
2022-08-27T18:23:13.571Z,2.50
2022-08-27T18:25:46.419Z,6.00
2022-08-27T18:28:20.522Z,2.00
2022-08-27T18:30:52.406Z,5.33
2022-08-27T18:33:23.059Z,4.00
2022-08-27T18:35:53.993Z,12.50
2022-08-27T18:38:24.474Z,3.50
2022-08-27T18:43:31.020Z,2.00
2022-08-27T18:46:03.540Z,3.50
2022-08-27T18:48:35.749Z,0.00
2022-08-27T18:51:10.467Z,2.00
2022-08-27T18:53:42.147Z,3.00
2022-08-27T18:56:16.683Z,6.00
2022-08-27T18:58:48.808Z,2.00
2022-08-27T19:01:26.179Z,2.67
2022-08-27T19:03:58.627Z,3.50
2022-08-27T19:06:28.950Z,4.50
2022-08-27T19:08:59.986Z,2.50
2022-08-27T19:11:32.891Z,0.00
2022-08-27T19:14:03.193Z,2.00
2022-08-27T19:16:45.935Z,2.00
2022-08-27T19:21:51.232Z,0.00
2022-08-27T19:24:24.514Z,4.00
2022-08-27T19:26:55.587Z,2.00
2022-08-27T19:29:26.196Z,0.00
2022-08-27T19:31:56.469Z,2.50
2022-08-27T19:34:26.620Z,4.00
2022-08-27T19:37:06.170Z,2.00
2022-08-27T19:39:38.755Z,1.00
2022-08-27T19:42:09.149Z,1.33
2022-08-27T19:44:39.310Z,2.00
2022-08-27T19:47:12.079Z,7.50
2022-08-27T19:49:43.182Z,1.50
2022-08-27T19:52:14.351Z,9.50
2022-08-27T19:55:03.366Z,4.50
2022-08-27T19:57:34.383Z,4.00
2022-08-27T20:00:05.942Z,2.00
2022-08-27T20:02:39.141Z,10.00
2022-08-27T20:05:18.333Z,0.00
2022-08-27T20:07:53.460Z,0.00
2022-08-27T20:10:36.178Z,0.00
2022-08-27T20:13:08.609Z,3.50
2022-08-27T20:15:39.886Z,2.67
2022-08-27T20:18:11.989Z,3.00
2022-08-27T20:20:43.226Z,7.00
2022-08-27T20:23:14.721Z,0.00
2022-08-27T20:25:45.677Z,4.00
2022-08-27T20:28:38.372Z,3.50
2022-08-27T20:31:07.075Z,2.00
2022-08-27T20:33:37.431Z,0.00
2022-08-27T20:36:09.861Z,5.33
2022-08-27T20:38:41.115Z,1.50
2022-08-27T20:41:11.665Z,5.00
2022-08-27T20:43:41.858Z,4.00
2022-08-27T20:46:12.208Z,4.50
2022-08-27T20:48:43.023Z,0.00
2022-08-27T20:53:43.906Z,2.00
2022-08-27T20:56:14.205Z,3.50
2022-08-27T20:59:02.216Z,0.00
2022-08-27T21:01:33.029Z,2.00
2022-08-27T21:04:03.822Z,2.00
2022-08-27T21:06:34.208Z,0.00
2022-08-27T21:09:05.124Z,2.00
2022-08-27T21:11:35.449Z,2.00
2022-08-27T21:14:05.834Z,4.00
2022-08-27T21:16:36.642Z,4.00
2022-08-27T21:19:06.773Z,1.00
2022-08-27T21:21:36.785Z,2.00
2022-08-27T21:24:07.047Z,2.00
2022-08-27T21:26:37.542Z,0.00
2022-08-27T21:29:07.748Z,2.00
2022-08-27T21:31:38.076Z,10.00
2022-08-27T21:34:08.698Z,0.00
2022-08-27T21:36:39.166Z,4.00
2022-08-27T21:39:09.956Z,2.00
2022-08-27T21:41:40.737Z,7.50
2022-08-27T21:44:10.913Z,4.00
2022-08-27T21:46:41.392Z,2.00
2022-08-27T21:49:11.781Z,7.00
2022-08-27T21:51:42.077Z,3.00
2022-08-27T21:56:42.688Z,5.00
2022-08-27T21:59:13.047Z,4.00
2022-08-27T22:01:44.209Z,2.00
2022-08-27T22:04:14.915Z,12.00
2022-08-27T22:06:45.497Z,2.67
2022-08-27T22:11:47.342Z,5.33
2022-08-27T22:14:18.104Z,4.00
2022-08-27T22:16:48.790Z,4.00
2022-08-27T22:19:19.715Z,7.50
2022-08-27T22:21:50.185Z,10.00
2022-08-27T22:24:20.934Z,6.67
2022-08-27T22:26:51.117Z,3.00
2022-08-27T22:29:21.139Z,2.00
2022-08-27T22:31:51.405Z,7.00
2022-08-27T22:34:21.644Z,3.50
2022-08-27T22:36:51.769Z,11.50
2022-08-27T22:39:22.119Z,6.50
2022-08-27T22:41:57.481Z,4.00
2022-08-27T22:44:27.974Z,3.33
2022-08-27T22:46:59.035Z,9.00
2022-08-27T22:49:29.433Z,2.00
2022-08-27T22:51:59.374Z,3.00
2022-08-27T22:54:29.318Z,6.67
2022-08-27T22:56:59.353Z,6.00
2022-08-27T22:59:29.399Z,9.50
2022-08-27T23:02:00.684Z,7.50
2022-08-27T23:04:53.616Z,5.50
2022-08-27T23:07:22.891Z,6.00
2022-08-27T23:09:52.958Z,12.00
2022-08-27T23:12:24.129Z,17.75
2022-08-27T23:14:54.683Z,9.50
2022-08-27T23:17:25.411Z,4.00
2022-08-27T23:19:58.571Z,10.00
2022-08-27T23:22:28.697Z,6.50
2022-08-27T23:25:16.690Z,6.50
2022-08-27T23:27:47.338Z,12.00
2022-08-27T23:30:19.787Z,7.00
2022-08-27T23:32:53.811Z,3.50
2022-08-27T23:35:27.022Z,5.50
2022-08-27T23:37:58.610Z,5.50
2022-08-27T23:40:29.285Z,1.50
2022-08-27T23:42:59.847Z,5.33
2022-08-27T23:45:31.626Z,4.00
2022-08-27T23:48:02.361Z,0.00
2022-08-27T23:50:34.057Z,10.50
2022-08-27T23:53:08.534Z,1.00
2022-08-27T23:55:41.725Z,4.50
2022-08-27T23:58:13.476Z,4.00
